Time;durP1;ratioP1;P1;durP2;ratioP2;P2;SDS_P1;SDS_P2;PMS_P1;PMS_P2;Temp;Humidity;BMP_temperature;BMP_pressure;BME280_temperature;BME280_humidity;BME280_pressure;Samples;Min_cycle;Max_cycle;Signal;HPM_P1;HPM_P2
2022/03/15 00:00:23;;;;;;;22.57;16.90;;;;;;;7.88;100.00;102415.16;5056657;28;20300;-53
2022/03/15 00:02:50;;;;;;;19.83;15.80;;;;;;;7.83;100.00;102418.47;5053756;28;20223;-53
2022/03/15 00:05:16;;;;;;;19.27;15.43;;;;;;;7.86;100.00;102413.31;5052611;28;20276;-55
2022/03/15 00:07:43;;;;;;;27.20;15.37;;;;;;;8.02;100.00;102417.41;5055417;28;20760;-54
2022/03/15 00:10:11;;;;;;;20.50;15.53;;;;;;;7.97;100.00;102425.09;5055468;28;20239;-53
2022/03/15 00:12:38;;;;;;;19.13;16.17;;;;;;;7.94;100.00;102417.13;5052682;28;20708;-54
2022/03/15 00:15:07;;;;;;;20.40;15.10;;;;;;;7.92;100.00;102415.28;5054525;28;20316;-52
2022/03/15 00:17:34;;;;;;;21.27;15.77;;;;;;;7.76;100.00;102419.06;5064146;28;20229;-52
2022/03/15 00:20:00;;;;;;;21.60;16.20;;;;;;;7.81;100.00;102425.34;5062483;28;20277;-55
2022/03/15 00:22:26;;;;;;;21.83;15.57;;;;;;;7.92;100.00;102418.78;5063843;28;20239;-54
2022/03/15 00:24:53;;;;;;;20.17;15.93;;;;;;;7.93;100.00;102415.31;5065116;28;20270;-54
2022/03/15 00:27:20;;;;;;;20.93;15.20;;;;;;;7.88;100.00;102416.91;5065673;28;20261;-51
2022/03/15 00:29:48;;;;;;;18.97;15.27;;;;;;;7.82;100.00;102411.44;5058599;28;20227;-55
2022/03/15 00:32:17;;;;;;;20.97;15.50;;;;;;;7.75;100.00;102420.75;5059923;28;20707;-54
2022/03/15 00:34:43;;;;;;;18.30;14.87;;;;;;;7.69;100.00;102419.63;5062144;28;20223;-54
2022/03/15 00:37:10;;;;;;;19.87;15.90;;;;;;;7.73;100.00;102412.00;5060770;28;20239;-54
2022/03/15 00:39:36;;;;;;;20.30;15.00;;;;;;;7.79;100.00;102404.38;5054336;28;20243;-53
2022/03/15 00:42:03;;;;;;;20.43;14.77;;;;;;;7.70;100.00;102398.81;5056600;28;20939;-55
2022/03/15 00:44:29;;;;;;;19.87;14.87;;;;;;;7.83;100.00;102408.91;5061424;28;20258;-54
2022/03/15 00:46:57;;;;;;;17.27;13.10;;;;;;;7.76;100.00;102406.00;5056387;28;20251;-54
2022/03/15 00:49:24;;;;;;;18.80;14.80;;;;;;;7.81;100.00;102409.66;5056238;28;20292;-54
2022/03/15 00:51:51;;;;;;;19.80;14.60;;;;;;;7.85;100.00;102408.94;5063859;28;20245;-53
2022/03/15 00:54:17;;;;;;;14.90;12.87;;;;;;;7.83;100.00;102415.84;5063589;28;20238;-55
2022/03/15 00:56:44;;;;;;;19.60;14.07;;;;;;;7.89;100.00;102418.66;5053669;28;20893;-53
2022/03/15 00:59:11;;;;;;;20.17;14.23;;;;;;;7.86;100.00;102419.47;5057104;28;20307;-55
2022/03/15 01:01:38;;;;;;;18.07;14.20;;;;;;;7.82;100.00;102421.88;5053995;28;20256;-55
2022/03/15 01:04:06;;;;;;;19.43;13.83;;;;;;;7.77;100.00;102416.50;5058711;27;22703;-55
2022/03/15 01:06:32;;;;;;;20.10;14.63;;;;;;;7.67;100.00;102413.47;5065060;28;20255;-55
2022/03/15 01:08:59;;;;;;;23.57;14.80;;;;;;;7.57;100.00;102409.63;5060137;28;20267;-55
2022/03/15 01:11:25;;;;;;;18.97;13.90;;;;;;;7.67;100.00;102411.75;5068800;28;20237;-55
2022/03/15 01:13:51;;;;;;;18.47;13.10;;;;;;;7.69;100.00;102409.19;5059675;28;21484;-54
2022/03/15 01:16:18;;;;;;;20.53;14.10;;;;;;;7.68;100.00;102402.19;5061408;28;20258;-55
2022/03/15 01:18:44;;;;;;;19.80;13.33;;;;;;;7.62;100.00;102402.88;5059709;28;20235;-54
2022/03/15 01:21:13;;;;;;;19.50;13.73;;;;;;;7.50;100.00;102403.25;5063634;27;20331;-55
2022/03/15 01:23:39;;;;;;;17.40;14.73;;;;;;;7.45;100.00;102403.94;5061382;28;20247;-53
2022/03/15 01:26:05;;;;;;;15.67;13.50;;;;;;;7.43;100.00;102401.25;5062172;28;20921;-52
2022/03/15 01:28:32;;;;;;;19.10;14.37;;;;;;;7.50;100.00;102410.22;5060895;28;20219;-53
2022/03/15 01:30:58;;;;;;;19.67;14.67;;;;;;;7.46;100.00;102405.72;5062458;28;20739;-53
2022/03/15 01:33:24;;;;;;;18.63;14.80;;;;;;;7.34;100.00;102412.25;5056989;28;20251;-52
2022/03/15 01:35:51;;;;;;;19.63;13.40;;;;;;;7.36;100.00;102407.06;5063114;28;20658;-53
2022/03/15 01:38:18;;;;;;;15.83;13.63;;;;;;;7.29;100.00;102407.66;5061556;28;20247;-52
2022/03/15 01:40:45;;;;;;;17.30;13.60;;;;;;;7.30;100.00;102405.13;5060429;28;20277;-54
2022/03/15 01:43:12;;;;;;;21.43;13.93;;;;;;;7.32;100.00;102413.00;5058809;28;20255;-54
2022/03/15 01:45:40;;;;;;;18.90;13.67;;;;;;;7.25;100.00;102413.59;5057544;28;20865;-55
2022/03/15 01:48:08;;;;;;;17.03;14.07;;;;;;;7.24;100.00;102419.66;5059027;28;20254;-54
2022/03/15 01:50:35;;;;;;;17.93;14.07;;;;;;;7.23;100.00;102418.78;5062236;27;20256;-54
2022/03/15 01:53:01;;;;;;;18.73;13.87;;;;;;;7.22;100.00;102431.75;5071211;28;20230;-55
2022/03/15 01:55:29;;;;;;;19.27;14.10;;;;;;;7.22;100.00;102423.94;5064030;27;20767;-54
2022/03/15 01:57:56;;;;;;;16.00;13.47;;;;;;;7.29;100.00;102428.56;5059786;28;20232;-55
2022/03/15 02:00:22;;;;;;;19.60;14.20;;;;;;;7.31;100.00;102435.63;5053682;27;20239;-55
2022/03/15 02:02:49;;;;;;;16.47;14.13;;;;;;;7.29;100.00;102429.44;5053459;28;20222;-55
2022/03/15 02:05:15;;;;;;;15.77;14.00;;;;;;;7.27;100.00;102432.84;5059933;28;20231;-53
2022/03/15 02:08:10;;;;;;;17.57;14.63;;;;;;;7.24;100.00;102436.22;5060851;28;20711;-53
2022/03/15 02:10:38;;;;;;;19.57;13.50;;;;;;;7.18;100.00;102431.63;5050888;28;20307;-53
2022/03/15 02:13:05;;;;;;;19.70;14.20;;;;;;;7.29;100.00;102433.78;5060220;28;20658;-54
2022/03/15 02:15:31;;;;;;;18.83;13.00;;;;;;;7.24;100.00;102441.44;5065186;28;20265;-52
2022/03/15 02:17:58;;;;;;;20.57;15.00;;;;;;;7.22;100.00;102447.44;5063679;28;20302;-53
2022/03/15 02:20:25;;;;;;;20.47;15.03;;;;;;;7.17;100.00;102442.91;5062993;28;20829;-53
2022/03/15 02:22:52;;;;;;;27.80;19.50;;;;;;;7.11;100.00;102445.28;5063754;28;20753;-53
2022/03/15 02:25:18;;;;;;;17.93;14.20;;;;;;;7.08;100.00;102439.94;5063142;28;20259;-54
2022/03/15 02:27:44;;;;;;;17.20;13.53;;;;;;;7.14;100.00;102442.78;5064606;28;20251;-54
2022/03/15 02:30:12;;;;;;;17.57;14.50;;;;;;;7.09;100.00;102446.97;5065511;28;20259;-54
2022/03/15 02:32:39;;;;;;;18.43;13.97;;;;;;;7.14;100.00;102445.41;5072135;28;20243;-53
2022/03/15 02:35:07;;;;;;;19.67;13.67;;;;;;;7.18;100.00;102444.69;5079845;28;20904;-53
2022/03/15 02:37:34;;;;;;;19.00;14.13;;;;;;;7.26;100.00;102449.34;5077561;28;20254;-54
2022/03/15 02:40:03;;;;;;;22.33;14.37;;;;;;;7.28;100.00;102448.56;5068479;28;20238;-53
2022/03/15 02:42:29;;;;;;;21.23;14.00;;;;;;;7.26;100.00;102444.13;5079050;28;20675;-53
2022/03/15 02:44:56;;;;;;;17.53;13.97;;;;;;;7.21;100.00;102456.09;5070452;28;20288;-54
2022/03/15 02:47:22;;;;;;;21.53;15.17;;;;;;;7.21;100.00;102451.78;5075625;28;20454;-54
2022/03/15 02:49:48;;;;;;;20.80;13.83;;;;;;;7.15;100.00;102447.19;5067821;28;20692;-54
2022/03/15 02:52:15;;;;;;;19.70;13.97;;;;;;;7.19;100.00;102453.41;5077648;28;20230;-55
2022/03/15 02:54:42;;;;;;;21.40;15.77;;;;;;;7.15;100.00;102449.78;5070228;28;20327;-55
2022/03/15 02:57:10;;;;;;;22.10;14.43;;;;;;;7.11;100.00;102460.06;5069331;28;20237;-55
2022/03/15 02:59:38;;;;;;;20.10;15.37;;;;;;;7.15;100.00;102459.34;5068458;28;20239;-54
2022/03/15 03:02:06;;;;;;;20.03;15.20;;;;;;;7.25;100.00;102456.28;5079823;28;20219;-54
2022/03/15 03:04:32;;;;;;;18.40;14.77;;;;;;;7.08;100.00;102452.97;5076960;28;20242;-53
2022/03/15 03:07:02;;;;;;;24.53;15.73;;;;;;;6.99;100.00;102460.47;5069682;28;20227;-55
2022/03/15 03:09:28;;;;;;;18.33;13.77;;;;;;;6.97;100.00;102462.09;5071156;28;20227;-54
2022/03/15 03:11:57;;;;;;;18.80;14.73;;;;;;;7.02;100.00;102460.59;5068250;28;20220;-55
2022/03/15 03:14:24;;;;;;;18.33;14.83;;;;;;;7.05;100.00;102449.34;5069137;28;20235;-55
2022/03/15 03:16:51;;;;;;;18.57;14.10;;;;;;;7.01;100.00;102456.19;5066888;28;20239;-54
2022/03/15 03:19:17;;;;;;;25.07;16.13;;;;;;;7.01;100.00;102445.72;5068974;28;20219;-52
2022/03/15 03:21:44;;;;;;;21.17;15.13;;;;;;;6.98;100.00;102448.22;5068123;28;20250;-55
2022/03/15 03:24:10;;;;;;;25.03;17.03;;;;;;;6.95;100.00;102448.13;5066888;28;20247;-56
2022/03/15 03:26:39;;;;;;;22.07;16.03;;;;;;;6.88;100.00;102466.94;5068194;28;20243;-55
2022/03/15 03:29:09;;;;;;;21.07;16.30;;;;;;;6.84;100.00;102463.28;5069517;28;20227;-55
2022/03/15 03:31:37;;;;;;;23.63;16.73;;;;;;;6.85;100.00;102466.84;5067591;28;20287;-55
2022/03/15 03:34:04;;;;;;;22.50;15.43;;;;;;;6.85;100.00;102472.06;5069067;28;20230;-55
2022/03/15 03:36:31;;;;;;;21.07;16.87;;;;;;;6.79;100.00;102467.44;5070896;28;20231;-54
2022/03/15 03:38:57;;;;;;;24.37;17.97;;;;;;;6.75;100.00;102467.25;5072971;28;20353;-55
2022/03/15 03:41:24;;;;;;;23.13;16.43;;;;;;;6.67;100.00;102473.06;5061379;28;20255;-54
2022/03/15 03:43:50;;;;;;;22.23;16.13;;;;;;;6.62;100.00;102474.56;5075526;28;20773;-55
2022/03/15 03:46:19;;;;;;;25.13;17.93;;;;;;;6.62;100.00;102474.56;5066634;28;20258;-55
2022/03/15 03:48:46;;;;;;;19.20;15.23;;;;;;;6.58;100.00;102480.47;5070757;28;20296;-55
2022/03/15 03:51:13;;;;;;;24.80;17.43;;;;;;;6.50;100.00;102474.03;5066523;28;20938;-55
2022/03/15 03:53:40;;;;;;;23.73;17.77;;;;;;;6.57;100.00;102480.41;5066706;28;20254;-55
2022/03/15 03:56:06;;;;;;;24.17;17.90;;;;;;;6.59;100.00;102481.34;5068814;28;20259;-55
2022/03/15 03:58:33;;;;;;;28.33;19.00;;;;;;;6.45;100.00;102483.38;5072349;28;20308;-54
2022/03/15 04:01:00;;;;;;;27.73;18.07;;;;;;;6.32;100.00;102476.72;5066423;28;20223;-55
2022/03/15 04:03:29;;;;;;;32.07;20.97;;;;;;;6.36;100.00;102476.03;5070189;28;20228;-54
2022/03/15 04:05:56;;;;;;;27.77;19.60;;;;;;;6.36;100.00;102482.97;5071677;28;20222;-54
2022/03/15 04:08:23;;;;;;;29.60;20.83;;;;;;;6.25;100.00;102481.59;5065859;28;20227;-54
2022/03/15 04:10:50;;;;;;;26.50;19.70;;;;;;;6.22;100.00;102482.38;5070225;28;20227;-55
2022/03/15 04:13:18;;;;;;;25.33;19.07;;;;;;;6.17;100.00;102478.63;5066226;28;20308;-54
2022/03/15 04:15:44;;;;;;;28.40;19.47;;;;;;;6.08;100.00;102479.13;5066856;28;20339;-55
2022/03/15 04:18:12;;;;;;;30.23;20.17;;;;;;;6.19;100.00;102477.00;5066419;28;20255;-54
2022/03/15 04:20:39;;;;;;;27.87;20.27;;;;;;;6.09;100.00;102478.28;5069339;28;20736;-54
2022/03/15 04:23:06;;;;;;;24.00;18.37;;;;;;;6.02;100.00;102484.06;5065775;28;20273;-56
2022/03/15 04:25:32;;;;;;;28.70;19.77;;;;;;;6.00;100.00;102472.66;5065703;28;20292;-55
2022/03/15 04:28:00;;;;;;;26.33;18.47;;;;;;;6.00;100.00;102480.47;5064723;28;20631;-54
2022/03/15 04:30:27;;;;;;;24.30;17.27;;;;;;;6.00;100.00;102490.91;5066884;28;20599;-53
2022/03/15 04:32:55;;;;;;;25.43;17.93;;;;;;;5.94;100.00;102483.72;5066257;28;20252;-55
2022/03/15 04:35:21;;;;;;;28.00;19.40;;;;;;;5.89;100.00;102481.66;5065158;28;20262;-52
2022/03/15 04:37:49;;;;;;;23.97;17.87;;;;;;;5.96;100.00;102483.75;5056562;28;20837;-56
2022/03/15 04:40:17;;;;;;;24.27;17.33;;;;;;;5.88;100.00;102487.72;5068938;28;20235;-55
2022/03/15 04:42:43;;;;;;;26.50;19.53;;;;;;;5.84;100.00;102494.50;5067277;28;20781;-54
2022/03/15 04:45:10;;;;;;;27.43;19.63;;;;;;;5.82;100.00;102484.81;5067620;28;20238;-55
2022/03/15 04:47:37;;;;;;;26.73;19.37;;;;;;;5.77;100.00;102488.94;5066174;28;20253;-54
2022/03/15 04:50:03;;;;;;;22.77;18.03;;;;;;;5.77;100.00;102483.72;5064488;28;20942;-53
2022/03/15 04:52:30;;;;;;;25.00;19.27;;;;;;;5.75;100.00;102479.31;5072911;28;20249;-55
2022/03/15 04:54:57;;;;;;;25.30;16.83;;;;;;;5.75;100.00;102473.22;5065563;28;20224;-55
2022/03/15 04:57:24;;;;;;;25.80;19.67;;;;;;;5.73;100.00;102475.75;5075356;28;20226;-54
2022/03/15 04:59:50;;;;;;;26.23;18.93;;;;;;;5.75;100.00;102471.50;5065409;28;20223;-55
2022/03/15 05:02:16;;;;;;;21.27;16.57;;;;;;;5.78;100.00;102469.84;5066053;28;20695;-54
2022/03/15 05:04:43;;;;;;;23.90;18.10;;;;;;;5.79;100.00;102469.94;5067968;28;20215;-54
2022/03/15 05:07:09;;;;;;;23.10;17.87;;;;;;;5.81;100.00;102467.41;5067276;28;20227;-55
2022/03/15 05:11:05;;;;;;;26.93;19.73;;;;;;;5.82;100.00;102463.97;5068451;28;20285;-55
2022/03/15 05:12:22;;;;;;;23.90;17.43;;;;;;;5.82;100.00;102463.97;5063377;28;20237;-54
2022/03/15 05:14:48;;;;;;;26.33;19.37;;;;;;;5.78;100.00;102464.66;5066794;28;20235;-53
2022/03/15 05:17:15;;;;;;;27.57;20.30;;;;;;;5.70;100.00;102459.09;5065700;28;20581;-55
2022/03/15 05:19:41;;;;;;;24.97;17.90;;;;;;;5.74;100.00;102461.91;5064574;28;20251;-54
2022/03/15 05:22:08;;;;;;;22.40;17.20;;;;;;;5.77;100.00;102457.66;5065412;28;20322;-55
2022/03/15 05:24:34;;;;;;;27.07;19.23;;;;;;;5.78;100.00;102462.03;5072710;28;20628;-55
2022/03/15 05:27:00;;;;;;;24.60;18.60;;;;;;;5.77;100.00;102463.75;5065475;28;20251;-54
2022/03/15 05:29:28;;;;;;;24.53;18.33;;;;;;;5.75;100.00;102468.88;5063650;28;20223;-55
2022/03/15 05:31:55;;;;;;;24.43;17.70;;;;;;;5.73;100.00;102470.53;5064680;28;20289;-54
2022/03/15 05:34:21;;;;;;;22.83;17.40;;;;;;;5.70;100.00;102459.97;5067676;28;20227;-55
2022/03/15 05:36:48;;;;;;;24.57;18.93;;;;;;;5.61;100.00;102467.34;5064882;28;20784;-55
2022/03/15 05:39:15;;;;;;;21.50;17.27;;;;;;;5.61;100.00;102459.53;5077826;28;20956;-55
2022/03/15 05:41:41;;;;;;;28.10;17.17;;;;;;;5.62;100.00;102461.34;5064773;28;20223;-54
2022/03/15 05:44:08;;;;;;;26.80;19.33;;;;;;;5.58;100.00;102462.03;5064334;28;20345;-55
2022/03/15 05:46:35;;;;;;;23.17;16.77;;;;;;;5.59;100.00;102466.41;5065179;28;20323;-55
2022/03/15 05:49:02;;;;;;;26.33;20.17;;;;;;;5.58;100.00;102464.63;5066840;28;20863;-54
2022/03/15 05:51:28;;;;;;;24.87;16.40;;;;;;;5.57;100.00;102468.03;5067858;28;20227;-55
2022/03/15 05:53:54;;;;;;;25.80;19.33;;;;;;;5.50;100.00;102458.13;5065517;28;20272;-55
2022/03/15 05:56:21;;;;;;;26.03;19.87;;;;;;;5.49;100.00;102459.84;5066401;28;20763;-55
2022/03/15 05:58:48;;;;;;;23.37;16.63;;;;;;;5.55;100.00;102469.69;5065549;28;20255;-55
2022/03/15 06:01:14;;;;;;;24.60;17.17;;;;;;;5.53;100.00;102466.09;5061824;28;20861;-54
2022/03/15 06:03:41;;;;;;;28.90;17.83;;;;;;;5.42;100.00;102464.72;5068000;28;20735;-54
2022/03/15 06:06:08;;;;;;;22.80;17.50;;;;;;;5.42;100.00;102463.00;5063059;28;20401;-56
2022/03/15 06:08:34;;;;;;;24.77;17.63;;;;;;;5.42;100.00;102467.31;5065627;28;20277;-54
2022/03/15 06:11:02;;;;;;;25.07;17.57;;;;;;;5.43;100.00;102462.16;5071650;28;20652;-54
2022/03/15 06:13:29;;;;;;;26.50;18.93;;;;;;;5.41;100.00;102471.63;5064844;28;20238;-55
2022/03/15 06:15:55;;;;;;;23.93;18.23;;;;;;;5.45;100.00;102470.06;5066016;28;20223;-55
2022/03/15 06:18:21;;;;;;;27.43;18.73;;;;;;;5.39;100.00;102468.03;5065294;28;20247;-54
2022/03/15 06:20:49;;;;;;;28.97;20.30;;;;;;;5.37;100.00;102471.38;5069737;28;20235;-55
2022/03/15 06:23:19;;;;;;;25.23;18.53;;;;;;;5.41;100.00;102460.31;5064203;28;20230;-55
2022/03/15 06:25:45;;;;;;;27.00;19.53;;;;;;;5.34;100.00;102469.56;5064285;28;20273;-54
2022/03/15 06:28:11;;;;;;;24.83;18.93;;;;;;;5.36;100.00;102474.81;5070494;27;20892;-54
2022/03/15 06:30:38;;;;;;;27.10;19.37;;;;;;;5.38;100.00;102471.47;5064154;28;20262;-54
2022/03/15 06:33:04;;;;;;;27.93;19.67;;;;;;;5.37;100.00;102461.88;5064471;28;20255;-54
2022/03/15 06:35:32;;;;;;;26.07;19.67;;;;;;;5.41;100.00;102465.53;5068439;28;20715;-55
2022/03/15 06:38:01;;;;;;;26.23;20.27;;;;;;;5.40;100.00;102468.94;5070270;28;20298;-54
2022/03/15 06:40:29;;;;;;;24.53;18.90;;;;;;;5.47;100.00;102469.28;5063564;28;20264;-55
2022/03/15 06:42:56;;;;;;;25.37;18.77;;;;;;;5.58;100.00;102469.84;5067260;28;20247;-55
2022/03/15 06:45:23;;;;;;;29.03;20.97;;;;;;;5.71;100.00;102472.16;5067511;28;20231;-55
2022/03/15 06:47:50;;;;;;;26.43;19.37;;;;;;;5.68;100.00;102474.63;5063969;28;20254;-53
2022/03/15 06:50:16;;;;;;;27.43;20.07;;;;;;;5.67;100.00;102470.25;5067920;28;20223;-56
2022/03/15 06:52:44;;;;;;;30.70;20.87;;;;;;;5.70;100.00;102467.78;5063828;28;20254;-54
2022/03/15 06:55:13;;;;;;;30.60;21.13;;;;;;;5.81;100.00;102462.19;5077208;28;20904;-55
2022/03/15 06:57:40;;;;;;;27.97;19.17;;;;;;;5.89;100.00;102468.63;5072288;28;20234;-54
2022/03/15 07:00:09;;;;;;;27.13;19.50;;;;;;;5.99;100.00;102465.66;5066182;28;20231;-52
2022/03/15 07:02:35;;;;;;;26.63;19.53;;;;;;;6.08;100.00;102463.47;5062907;28;20320;-53
2022/03/15 07:05:02;;;;;;;28.53;19.57;;;;;;;6.17;100.00;102463.88;5069690;28;20665;-53
2022/03/15 07:07:28;;;;;;;28.00;19.90;;;;;;;6.24;100.00;102461.56;5067895;28;20227;-53
2022/03/15 07:09:55;;;;;;;29.63;20.37;;;;;;;6.29;100.00;102467.88;5071769;28;20235;-55
2022/03/15 07:12:24;;;;;;;25.50;19.77;;;;;;;6.49;100.00;102472.22;5064306;28;20239;-54
2022/03/15 07:14:50;;;;;;;28.23;19.47;;;;;;;6.56;100.00;102463.84;5063890;28;20235;-54
2022/03/15 07:17:17;;;;;;;23.93;18.80;;;;;;;6.61;100.00;102472.78;5062147;28;20239;-56
2022/03/15 07:19:43;;;;;;;25.83;18.63;;;;;;;6.71;100.00;102479.28;5065061;28;20271;-54
2022/03/15 07:22:09;;;;;;;30.90;21.57;;;;;;;6.72;100.00;102475.84;5066992;28;20251;-53
2022/03/15 07:24:36;;;;;;;26.97;19.87;;;;;;;6.77;100.00;102469.09;5067873;28;20727;-52
2022/03/15 07:27:03;;;;;;;29.17;20.30;;;;;;;6.77;100.00;102478.66;5061570;28;20298;-52
2022/03/15 07:29:31;;;;;;;25.63;20.37;;;;;;;6.79;100.00;102482.22;5057530;28;20284;-53
2022/03/15 07:31:57;;;;;;;31.07;20.67;;;;;;;6.77;100.00;102479.53;5065648;28;20254;-53
2022/03/15 07:34:24;;;;;;;23.80;20.60;;;;;;;6.83;100.00;102484.13;5066494;28;20255;-53
2022/03/15 07:36:50;;;;;;;25.23;19.80;;;;;;;6.87;100.00;102483.44;5066984;28;20670;-53
2022/03/15 07:39:17;;;;;;;32.73;20.07;;;;;;;6.94;100.00;102494.19;5067370;28;20235;-51
2022/03/15 07:41:43;;;;;;;26.77;19.30;;;;;;;7.08;100.00;102486.03;5066443;28;20243;-54
2022/03/15 07:44:10;;;;;;;29.97;20.97;;;;;;;7.24;100.00;102483.25;5060738;28;20290;-54
2022/03/15 07:46:38;;;;;;;27.10;19.50;;;;;;;7.32;100.00;102489.66;5061909;28;20258;-53
2022/03/15 07:49:05;;;;;;;32.73;22.43;;;;;;;7.33;100.00;102483.59;5064914;28;20246;-54
2022/03/15 07:51:31;;;;;;;27.63;20.93;;;;;;;7.29;100.00;102486.03;5067030;28;20255;-54
2022/03/15 07:53:58;;;;;;;25.67;18.50;;;;;;;7.32;100.00;102478.31;5067501;28;20582;-54
2022/03/15 07:56:24;;;;;;;27.37;20.70;;;;;;;7.47;100.00;102480.66;5066408;28;20927;-55
2022/03/15 07:58:50;;;;;;;27.13;19.60;;;;;;;7.54;100.00;102486.19;5066297;28;20697;-52
2022/03/15 08:01:17;;;;;;;25.07;18.60;;;;;;;7.66;100.00;102488.41;5067353;28;20308;-53
2022/03/15 08:03:44;;;;;;;30.87;19.97;;;;;;;7.97;100.00;102482.63;5065909;28;20235;-53
2022/03/15 08:06:11;;;;;;;24.57;18.90;;;;;;;7.99;100.00;102480.94;5066378;28;20676;-54
2022/03/15 08:08:37;;;;;;;29.07;20.53;;;;;;;8.13;100.00;102471.88;5065462;28;20251;-53
2022/03/15 08:11:06;;;;;;;30.63;20.63;;;;;;;8.14;100.00;102478.00;5065136;28;21662;-54
2022/03/15 08:13:32;;;;;;;26.17;19.70;;;;;;;8.16;100.00;102475.47;5066165;28;20230;-53
2022/03/15 08:15:59;;;;;;;27.73;20.37;;;;;;;8.35;100.00;102475.28;5065905;28;20227;-54
2022/03/15 08:18:25;;;;;;;30.33;21.33;;;;;;;8.60;100.00;102464.03;5065492;28;20251;-54
2022/03/15 08:20:53;;;;;;;25.57;20.53;;;;;;;8.74;100.00;102464.47;5065027;28;20235;-54
2022/03/15 08:23:21;;;;;;;27.60;20.30;;;;;;;8.80;100.00;102462.06;5065617;28;20231;-54
2022/03/15 08:25:47;;;;;;;24.73;20.20;;;;;;;8.94;100.00;102459.91;5065973;28;20243;-54
2022/03/15 08:28:14;;;;;;;26.57;20.23;;;;;;;9.03;100.00;102455.00;5065090;28;20296;-53
2022/03/15 08:30:40;;;;;;;27.80;21.27;;;;;;;9.35;100.00;102450.78;5065756;28;20239;-54
2022/03/15 08:33:06;;;;;;;27.00;20.30;;;;;;;9.38;100.00;102445.66;5065632;28;20699;-54
2022/03/15 08:35:34;;;;;;;29.23;21.77;;;;;;;9.50;100.00;102446.00;5067004;28;20970;-54
2022/03/15 08:38:01;;;;;;;26.83;20.30;;;;;;;9.72;100.00;102438.78;5065221;28;20224;-54
2022/03/15 08:40:28;;;;;;;26.23;19.87;;;;;;;9.76;100.00;102440.69;5068183;28;20227;-54
2022/03/15 08:42:54;;;;;;;29.03;20.60;;;;;;;9.82;99.73;102447.81;5067384;28;20231;-53
2022/03/15 08:45:21;;;;;;;30.77;22.27;;;;;;;9.71;100.00;102447.50;5067007;28;20809;-54
2022/03/15 08:47:47;;;;;;;29.47;21.60;;;;;;;9.73;100.00;102446.72;5067715;28;20247;-54
2022/03/15 08:50:13;;;;;;;28.33;20.50;;;;;;;9.79;100.00;102441.66;5068992;27;20243;-53
2022/03/15 08:52:40;;;;;;;25.33;20.60;;;;;;;9.90;100.00;102444.59;5069393;28;20242;-53
2022/03/15 08:55:09;;;;;;;35.63;22.23;;;;;;;10.02;100.00;102444.94;5069020;28;20944;-53
2022/03/15 08:57:35;;;;;;;27.80;21.13;;;;;;;10.11;100.00;102443.41;5071490;28;20247;-52
2022/03/15 09:00:02;;;;;;;30.90;21.67;;;;;;;10.21;99.78;102456.88;5071349;28;21097;-54
2022/03/15 09:02:28;;;;;;;28.90;22.03;;;;;;;10.12;99.97;102450.47;5071595;28;20234;-54
2022/03/15 09:04:55;;;;;;;32.43;23.43;;;;;;;10.21;99.21;102443.75;5071269;28;20288;-54
2022/03/15 09:07:21;;;;;;;31.77;23.43;;;;;;;10.39;100.00;102432.91;5068099;28;20296;-56
2022/03/15 09:09:48;;;;;;;28.50;21.53;;;;;;;10.42;98.95;102432.94;5068267;28;20692;-55
2022/03/15 09:12:17;;;;;;;31.23;22.17;;;;;;;10.24;98.20;102437.66;5067429;28;20243;-53
2022/03/15 09:14:43;;;;;;;36.07;22.80;;;;;;;10.18;99.27;102437.50;5066079;28;20231;-54
2022/03/15 09:17:09;;;;;;;31.87;21.80;;;;;;;10.29;100.00;102433.50;5065436;28;20234;-54
2022/03/15 09:19:36;;;;;;;27.17;19.97;;;;;;;10.39;98.88;102429.34;5064962;28;20235;-54
2022/03/15 09:22:03;;;;;;;25.63;19.37;;;;;;;10.67;97.17;102423.09;5064351;28;20235;-55
2022/03/15 09:24:30;;;;;;;29.00;21.53;;;;;;;10.65;97.12;102433.56;5072060;28;20770;-54
2022/03/15 09:26:57;;;;;;;27.17;19.83;;;;;;;10.77;96.00;102421.59;5065316;28;20231;-53
2022/03/15 09:29:25;;;;;;;28.13;17.97;;;;;;;10.60;95.49;102429.94;5063786;28;20246;-52
2022/03/15 09:31:51;;;;;;;29.37;19.53;;;;;;;10.93;95.85;102421.13;5057492;28;20490;-53
2022/03/15 09:34:18;;;;;;;21.47;18.80;;;;;;;11.14;95.25;102423.41;5062971;28;20262;-54
2022/03/15 09:36:45;;;;;;;23.70;17.07;;;;;;;11.31;92.73;102416.78;5065672;27;20670;-53
2022/03/15 09:39:12;;;;;;;28.17;19.10;;;;;;;11.14;91.68;102423.41;5065348;28;20231;-54
2022/03/15 09:41:39;;;;;;;25.97;17.07;;;;;;;11.16;91.88;102411.16;5078092;28;20262;-53
2022/03/15 09:44:07;;;;;;;27.02;17.83;;;;;;;11.20;91.40;102418.28;5064071;28;20318;-53
2022/03/15 09:46:38;;;;;;;22.20;17.47;;;;;;;11.13;93.07;102411.13;5065249;28;20255;-53
2022/03/15 09:49:06;;;;;;;24.17;16.80;;;;;;;11.26;92.13;102407.91;5063513;28;20227;-53
2022/03/15 09:51:34;;;;;;;23.05;18.08;;;;;;;11.41;91.46;102404.75;5065108;28;20231;-53
2022/03/15 09:54:02;;;;;;;27.33;18.33;;;;;;;11.42;90.79;102404.78;5064435;28;20223;-52
2022/03/15 09:56:29;;;;;;;26.90;17.53;;;;;;;11.56;89.33;102406.81;5068337;28;20222;-53
2022/03/15 09:58:55;;;;;;;21.30;16.17;;;;;;;11.32;88.60;102407.16;5067766;28;20234;-53
2022/03/15 10:01:22;;;;;;;21.42;16.67;;;;;;;11.41;88.72;102403.00;5066612;28;20239;-53
2022/03/15 10:03:49;;;;;;;22.33;16.70;;;;;;;11.27;87.58;102406.16;5064970;28;20307;-53
2022/03/15 10:06:16;;;;;;;22.93;15.90;;;;;;;11.09;88.63;102394.38;5064249;28;20249;-53
2022/03/15 10:08:43;;;;;;;23.23;16.20;;;;;;;10.93;88.23;102387.88;5065219;28;20296;-53
2022/03/15 10:11:12;;;;;;;27.30;15.90;;;;;;;11.06;87.78;102399.56;5064085;28;20801;-52
2022/03/15 10:13:38;;;;;;;20.63;15.40;;;;;;;10.98;88.70;102401.97;5064181;28;20237;-53
2022/03/15 10:16:05;;;;;;;23.45;16.33;;;;;;;11.16;89.71;102400.66;5067681;28;20235;-55
2022/03/15 10:18:31;;;;;;;23.77;16.58;;;;;;;11.12;87.39;102396.19;5064970;28;20250;-53
2022/03/15 10:20:59;;;;;;;22.70;15.47;;;;;;;11.24;88.01;102393.84;5066025;28;20306;-52
2022/03/15 10:23:29;;;;;;;23.67;15.03;;;;;;;11.39;86.21;102391.56;5063908;28;20243;-52
2022/03/15 10:25:57;;;;;;;20.88;15.30;;;;;;;11.38;86.41;102381.00;5058258;28;20231;-53
2022/03/15 10:28:23;;;;;;;22.63;15.05;;;;;;;11.43;85.73;102380.25;5064474;28;20391;-52
2022/03/15 10:30:50;;;;;;;22.98;14.07;;;;;;;11.68;84.34;102386.91;5061732;28;20252;-52
2022/03/15 10:33:18;;;;;;;18.35;13.32;;;;;;;11.89;82.91;102375.09;5064971;28;20227;-52
2022/03/15 10:35:46;;;;;;;19.85;14.90;;;;;;;12.04;81.99;102375.41;5065868;28;20250;-54
2022/03/15 10:38:14;;;;;;;20.75;14.75;;;;;;;12.05;81.62;102377.19;5066222;28;20285;-52
2022/03/15 10:40:42;;;;;;;20.33;14.90;;;;;;;12.07;82.18;102374.56;5064903;28;20235;-54
2022/03/15 10:43:10;;;;;;;23.48;15.48;;;;;;;12.03;80.77;102367.47;5064970;28;20259;-53
2022/03/15 10:45:38;;;;;;;21.23;15.15;;;;;;;11.74;81.35;102375.63;5064811;28;20255;-54
2022/03/15 10:48:15;;;;;;;19.15;14.02;;;;;;;11.71;81.30;102368.56;5068651;28;20292;-54
2022/03/15 10:50:50;;;;;;;20.90;12.80;;;;;;;11.65;78.28;102370.16;5068705;28;20246;-53
2022/03/15 10:53:18;;;;;;;24.70;15.50;;;;;;;11.79;76.85;102363.44;5062263;28;20238;-53
2022/03/15 10:55:45;;;;;;;58.53;31.92;;;;;;;11.85;75.73;102358.34;5075276;28;20226;-54
2022/03/15 10:58:13;;;;;;;18.35;14.00;;;;;;;11.80;77.09;102356.47;5071288;28;20247;-54
2022/03/15 11:00:42;;;;;;;20.17;13.13;;;;;;;11.76;76.89;102358.16;5076671;28;20235;-53
2022/03/15 11:03:13;;;;;;;18.83;13.60;;;;;;;11.76;76.84;102347.63;5068505;28;20229;-53
2022/03/15 11:05:40;;;;;;;12.93;9.38;;;;;;;11.86;75.08;102348.69;5072294;28;20254;-53
2022/03/15 11:08:08;;;;;;;11.63;8.10;;;;;;;11.90;71.56;102345.31;5071017;28;20245;-52